Time;durP1;ratioP1;P1;durP2;ratioP2;P2;SDS_P1;SDS_P2;PMS_P1;PMS_P2;Temp;Humidity;BMP_temperature;BMP_pressure;BME280_temperature;BME280_humidity;BME280_pressure;Samples;Min_cycle;Max_cycle;Signal;HPM_P1;HPM_P2
2021/12/18 00:00:43;;;;;;;17.10;12.83;;;;;;;7.17;100.00;103875.25;5215720;28;20566;-72
2021/12/18 00:03:15;;;;;;;18.80;13.40;;;;;;;7.17;99.74;103874.34;5215958;28;20061;-75
2021/12/18 00:05:46;;;;;;;17.17;13.40;;;;;;;7.19;100.00;103872.72;5216013;28;20177;-75
2021/12/18 00:08:17;;;;;;;17.87;13.43;;;;;;;7.17;100.00;103875.25;5198142;28;20038;-73
2021/12/18 00:10:49;;;;;;;17.00;13.23;;;;;;;7.21;100.00;103872.00;5212121;28;20651;-73
2021/12/18 00:13:20;;;;;;;17.93;13.83;;;;;;;7.18;100.00;103860.56;5194985;28;20057;-72
2021/12/18 00:15:52;;;;;;;17.37;14.13;;;;;;;7.21;100.00;103865.91;5194980;28;20092;-73
2021/12/18 00:18:24;;;;;;;17.70;13.95;;;;;;;7.20;100.00;103867.63;5195502;28;20122;-73
2021/12/18 00:20:57;;;;;;;20.03;14.50;;;;;;;7.18;100.00;103866.66;5195006;28;20134;-73
2021/12/18 00:23:29;;;;;;;21.42;13.52;;;;;;;7.14;100.00;103859.50;5194920;28;20434;-73
2021/12/18 00:26:00;;;;;;;18.40;14.23;;;;;;;7.18;100.00;103863.16;5194770;28;20026;-73
2021/12/18 00:28:32;;;;;;;19.47;14.20;;;;;;;7.18;100.00;103861.47;5194931;28;20405;-73
2021/12/18 00:31:03;;;;;;;18.60;13.93;;;;;;;7.16;100.00;103857.88;5194696;28;20034;-74
2021/12/18 00:33:34;;;;;;;19.70;13.00;;;;;;;7.15;100.00;103852.63;5194720;28;20866;-75
2021/12/18 00:36:06;;;;;;;16.80;13.37;;;;;;;7.15;100.00;103857.81;5194706;28;20478;-73
2021/12/18 00:38:39;;;;;;;17.73;12.80;;;;;;;7.11;100.00;103855.03;5194499;28;20057;-73
2021/12/18 00:41:13;;;;;;;16.65;11.48;;;;;;;7.11;100.00;103847.25;5194609;28;20018;-74
2021/12/18 00:44:03;;;;;;;17.00;12.50;;;;;;;7.12;100.00;103851.66;5194700;28;20030;-74
2021/12/18 00:46:41;;;;;;;15.15;11.35;;;;;;;7.12;100.00;103850.78;5194797;28;20030;-73
2021/12/18 00:49:18;;;;;;;14.43;11.02;;;;;;;7.12;100.00;103843.00;5194530;28;20456;-74
2021/12/18 00:51:49;;;;;;;15.65;11.57;;;;;;;7.07;100.00;103842.75;5194333;28;20062;-75
2021/12/18 00:54:21;;;;;;;17.07;11.00;;;;;;;7.10;100.00;103842.91;5194369;28;20069;-75
2021/12/18 00:56:52;;;;;;;17.37;11.83;;;;;;;7.06;100.00;103843.56;5194007;28;20474;-74
2021/12/18 00:59:24;;;;;;;14.50;10.67;;;;;;;7.05;100.00;103844.38;5194458;28;20065;-73
2021/12/18 01:01:55;;;;;;;14.47;10.23;;;;;;;7.05;100.00;103836.59;5193947;28;20170;-75
2021/12/18 01:04:27;;;;;;;14.20;10.37;;;;;;;7.05;100.00;103839.19;5194651;28;20054;-73
2021/12/18 01:06:58;;;;;;;14.10;10.10;;;;;;;7.05;100.00;103843.47;5193941;28;20030;-74
2021/12/18 01:09:48;;;;;;;13.50;10.07;;;;;;;7.03;100.00;103840.81;5194045;28;20038;-72
2021/12/18 01:12:24;;;;;;;13.70;9.75;;;;;;;7.01;100.00;103833.78;5194013;28;20042;-72
2021/12/18 01:15:13;;;;;;;16.20;10.18;;;;;;;7.00;100.00;103832.84;5193911;28;20038;-72
2021/12/18 01:23:26;;;;;;;14.30;9.88;;;;;;;6.97;100.00;103829.22;5194521;28;20132;-72
2021/12/18 01:25:58;;;;;;;13.98;9.32;;;;;;;7.03;100.00;103829.53;5193933;28;20088;-73
2021/12/18 01:28:31;;;;;;;13.97;9.27;;;;;;;7.01;100.00;103837.25;5193973;28;20042;-73
2021/12/18 01:31:03;;;;;;;11.93;8.60;;;;;;;6.97;100.00;103824.94;5193894;28;20088;-73
2021/12/18 01:33:35;;;;;;;13.20;9.23;;;;;;;7.04;100.00;103826.16;5194225;28;20028;-74
2021/12/18 01:36:06;;;;;;;10.75;8.43;;;;;;;7.04;100.00;103826.16;5194058;28;20019;-74
2021/12/18 01:38:38;;;;;;;12.23;9.20;;;;;;;7.00;100.00;103829.38;5194180;28;20116;-73
2021/12/18 01:41:09;;;;;;;13.10;8.63;;;;;;;7.00;100.00;103835.44;5193832;28;20146;-73
2021/12/18 01:52:04;;;;;;;14.77;9.30;;;;;;;7.07;100.00;103842.75;5193699;28;20034;-74
2021/12/18 01:54:36;;;;;;;16.02;9.38;;;;;;;6.99;100.00;103841.47;5193962;28;20038;-73
2021/12/18 01:57:07;;;;;;;13.53;9.10;;;;;;;7.02;100.00;103846.81;5176151;28;20553;-76
2021/12/18 01:59:47;;;;;;;13.60;9.50;;;;;;;6.98;100.00;103851.78;5193670;28;20089;-73
2021/12/18 02:02:20;;;;;;;12.98;9.30;;;;;;;7.02;100.00;103853.69;5193481;28;20109;-74
2021/12/18 02:04:51;;;;;;;12.45;9.15;;;;;;;7.00;100.00;103853.59;5193656;28;20506;-73
2021/12/18 02:07:23;;;;;;;13.03;8.93;;;;;;;7.00;100.00;103856.19;5193530;28;20040;-74
2021/12/18 02:10:07;;;;;;;13.47;9.00;;;;;;;6.98;100.00;103851.78;5193463;28;20041;-72
2021/12/18 02:21:13;;;;;;;16.27;10.05;;;;;;;7.00;100.00;103845.81;5197428;28;20038;-73
2021/12/18 02:23:45;;;;;;;16.88;10.68;;;;;;;6.94;100.00;103846.41;5197353;28;20081;-72
2021/12/18 02:26:17;;;;;;;15.60;11.05;;;;;;;6.96;100.00;103832.66;5197244;28;20122;-74
2021/12/18 02:28:51;;;;;;;16.67;11.33;;;;;;;6.98;100.00;103839.69;5197413;28;20461;-73
2021/12/18 02:31:22;;;;;;;15.60;10.85;;;;;;;6.98;100.00;103838.81;5197140;28;20026;-74
2021/12/18 02:33:54;;;;;;;15.80;11.37;;;;;;;6.92;100.00;103832.50;5196978;28;20084;-75
2021/12/18 02:36:26;;;;;;;16.27;10.48;;;;;;;6.91;100.00;103840.19;5197461;28;20910;-73
2021/12/18 02:39:16;;;;;;;17.73;11.03;;;;;;;6.91;100.00;103840.19;5197095;28;20041;-73
2021/12/18 02:42:08;;;;;;;15.93;11.55;;;;;;;6.90;100.00;103839.28;5196938;28;20026;-73
2021/12/18 02:44:39;;;;;;;17.50;11.40;;;;;;;6.89;100.00;103831.41;5196154;28;20060;-73
2021/12/18 02:47:13;;;;;;;16.63;10.83;;;;;;;6.96;100.00;103830.06;5196919;28;20027;-73
2021/12/18 02:49:46;;;;;;;18.30;12.10;;;;;;;6.92;100.00;103827.31;5196685;28;20266;-74
2021/12/18 02:52:19;;;;;;;15.77;11.05;;;;;;;6.90;100.00;103820.25;5197072;28;20894;-73
2021/12/18 02:54:51;;;;;;;15.82;11.25;;;;;;;6.89;100.00;103823.63;5196580;28;20173;-73
2021/12/18 02:57:22;;;;;;;16.97;11.47;;;;;;;6.89;100.00;103819.38;5196960;28;20034;-73
2021/12/18 02:59:56;;;;;;;16.77;12.37;;;;;;;6.87;100.00;103820.09;5196472;28;20030;-73
2021/12/18 03:02:33;;;;;;;16.20;11.45;;;;;;;6.89;100.00;103811.59;5196773;28;20145;-73
2021/12/18 03:05:07;;;;;;;17.13;12.13;;;;;;;6.88;100.00;103808.91;5190730;23;20030;-73
2021/12/18 03:07:39;;;;;;;17.65;11.43;;;;;;;6.86;100.00;103811.44;5257774;28;20442;-76
2021/12/18 03:23:47;;;;;;;16.67;12.70;;;;;;;6.85;100.00;103804.44;5257908;28;20025;-75
2021/12/18 03:26:19;;;;;;;16.48;10.88;;;;;;;6.88;100.00;103793.34;5257710;28;20721;-74
2021/12/18 03:28:50;;;;;;;15.97;11.27;;;;;;;6.84;100.00;103794.00;5257493;28;20025;-75
2021/12/18 03:31:22;;;;;;;16.37;11.17;;;;;;;6.85;100.00;103801.84;5257860;28;20582;-73
2021/12/18 03:33:53;;;;;;;16.20;11.30;;;;;;;6.81;100.00;103797.34;5257792;28;20052;-73
2021/12/18 03:36:26;;;;;;;17.17;12.10;;;;;;;6.79;100.00;103800.66;5257785;28;20053;-75
2021/12/18 03:38:58;;;;;;;20.15;12.70;;;;;;;6.76;100.00;103798.78;5257505;28;20032;-74
2021/12/18 03:41:30;;;;;;;16.35;10.98;;;;;;;6.81;100.00;103807.72;5257445;28;20040;-73
2021/12/18 03:44:02;;;;;;;16.60;12.07;;;;;;;6.75;100.00;103790.13;5250315;23;20088;-73
2021/12/18 03:47:04;;;;;;;18.50;12.83;;;;;;;6.73;100.00;103806.44;5236655;28;20040;-74
2021/12/18 03:49:44;;;;;;;17.13;11.77;;;;;;;6.66;100.00;103799.13;5236371;28;20025;-73
2021/12/18 03:52:18;;;;;;;18.48;11.80;;;;;;;6.69;100.00;103815.72;5236420;28;20136;-73
2021/12/18 03:54:50;;;;;;;17.70;12.10;;;;;;;6.72;100.00;103809.81;5236125;28;20074;-73
2021/12/18 03:57:21;;;;;;;15.37;11.33;;;;;;;6.72;100.00;103826.25;5235977;28;20124;-73
2021/12/18 03:59:53;;;;;;;19.23;12.53;;;;;;;6.70;100.00;103814.06;5235808;28;20103;-73
2021/12/18 04:02:25;;;;;;;17.42;11.50;;;;;;;6.71;100.00;103810.63;5236301;28;20071;-72
2021/12/18 04:04:56;;;;;;;16.40;11.47;;;;;;;6.74;100.00;103810.78;5236300;28;20025;-73
2021/12/18 04:07:27;;;;;;;16.80;11.33;;;;;;;6.74;100.00;103810.78;5235736;28;20030;-74
2021/12/18 04:09:58;;;;;;;17.17;11.77;;;;;;;6.76;100.00;103814.34;5236004;28;20025;-73
2021/12/18 04:12:30;;;;;;;15.10;10.50;;;;;;;6.73;100.00;103816.81;5236122;28;20057;-72
2021/12/18 04:15:02;;;;;;;16.33;10.47;;;;;;;6.69;100.00;103810.53;5235768;28;20053;-73
2021/12/18 04:17:34;;;;;;;15.45;10.65;;;;;;;6.66;100.00;103805.19;5235561;28;20033;-74
2021/12/18 04:20:06;;;;;;;17.63;11.97;;;;;;;6.66;100.00;103810.38;5235978;28;20025;-74
2021/12/18 04:22:37;;;;;;;16.23;10.93;;;;;;;6.71;100.00;103811.53;5236060;28;20109;-73
2021/12/18 04:25:09;;;;;;;15.77;10.80;;;;;;;6.67;100.00;103813.88;5235467;28;20112;-72
2021/12/18 04:27:40;;;;;;;16.23;10.47;;;;;;;6.64;100.00;103818.91;5235789;28;20036;-72
2021/12/18 04:30:13;;;;;;;15.17;10.73;;;;;;;6.63;100.00;103820.59;5235501;28;20026;-73
2021/12/18 04:32:44;;;;;;;14.55;10.65;;;;;;;6.69;100.00;103813.13;5235882;28;20025;-74
2021/12/18 04:35:15;;;;;;;16.40;10.40;;;;;;;6.66;100.00;103806.91;5235535;28;20071;-73
2021/12/18 04:37:47;;;;;;;16.00;11.20;;;;;;;6.70;100.00;103814.06;5235475;28;20420;-74
2021/12/18 04:40:19;;;;;;;17.00;11.20;;;;;;;6.65;100.00;103808.63;5234880;28;20024;-71
2021/12/18 04:42:50;;;;;;;16.90;11.07;;;;;;;6.69;100.00;103812.25;5235165;28;20045;-71
2021/12/18 04:45:22;;;;;;;15.20;11.00;;;;;;;6.71;100.00;103815.81;5235317;28;20515;-72
2021/12/18 04:47:54;;;;;;;17.60;11.77;;;;;;;6.65;100.00;103820.66;5235131;28;20124;-73
2021/12/18 04:50:26;;;;;;;18.15;11.82;;;;;;;6.64;100.00;103816.31;5235054;28;20021;-72
2021/12/18 04:52:57;;;;;;;16.90;12.27;;;;;;;6.63;100.00;103812.81;5235296;28;20120;-74
2021/12/18 04:55:28;;;;;;;17.97;11.90;;;;;;;6.69;100.00;103814.84;5235173;28;20075;-73
2021/12/18 04:58:00;;;;;;;21.43;10.77;;;;;;;6.74;100.00;103823.75;5235522;28;20029;-72
2021/12/18 05:00:39;;;;;;;16.40;11.63;;;;;;;6.71;100.00;103818.41;5234915;28;20029;-72
2021/12/18 05:03:12;;;;;;;18.50;11.18;;;;;;;6.68;100.00;103820.84;5235163;28;20029;-73
2021/12/18 05:05:44;;;;;;;16.60;10.02;;;;;;;6.62;100.00;103825.69;5235252;28;20052;-72
2021/12/18 05:08:15;;;;;;;18.10;11.50;;;;;;;6.62;100.00;103821.41;5235465;28;20471;-74
2021/12/18 05:10:47;;;;;;;17.60;11.90;;;;;;;6.60;100.00;103819.53;5234966;28;20029;-72
2021/12/18 05:13:18;;;;;;;18.37;11.40;;;;;;;6.62;100.00;103826.59;5234991;28;20389;-72
2021/12/18 05:15:50;;;;;;;17.57;10.93;;;;;;;6.62;100.00;103831.78;5234556;28;20358;-72
2021/12/18 05:18:21;;;;;;;15.60;10.90;;;;;;;6.55;100.00;103830.56;5235363;28;20082;-73
2021/12/18 05:20:53;;;;;;;16.03;10.37;;;;;;;6.58;100.00;103829.84;5234860;28;20027;-73
2021/12/18 05:23:24;;;;;;;16.90;10.23;;;;;;;6.61;100.00;103834.31;5235141;28;20030;-72
2021/12/18 05:25:55;;;;;;;16.10;10.20;;;;;;;6.55;100.00;103829.66;5234790;28;20025;-73
2021/12/18 05:28:27;;;;;;;14.40;10.33;;;;;;;6.53;100.00;103834.75;5234594;28;20078;-73
2021/12/18 05:30:58;;;;;;;14.23;9.73;;;;;;;6.57;100.00;103831.53;5234570;28;20496;-72
2021/12/18 05:33:29;;;;;;;14.87;10.10;;;;;;;6.54;100.00;103836.56;5234587;28;20029;-73
2021/12/18 05:36:03;;;;;;;14.47;10.07;;;;;;;6.52;100.00;103829.50;5234515;28;20079;-70
2021/12/18 05:38:34;;;;;;;15.75;10.23;;;;;;;6.53;100.00;103832.19;5235366;28;20025;-74
2021/12/18 05:41:06;;;;;;;16.87;10.50;;;;;;;6.55;100.00;103830.56;5234381;28;20030;-72
2021/12/18 05:43:37;;;;;;;18.67;11.53;;;;;;;6.53;100.00;103831.28;5234710;28;20053;-74
2021/12/18 05:46:08;;;;;;;17.10;11.97;;;;;;;6.55;100.00;103829.66;5234169;28;20034;-73
2021/12/18 05:48:40;;;;;;;18.37;11.73;;;;;;;6.57;100.00;103828.06;5234372;28;20041;-73
2021/12/18 05:51:11;;;;;;;17.97;12.30;;;;;;;6.54;100.00;103817.53;5234529;28;20116;-73
2021/12/18 05:53:43;;;;;;;19.13;12.97;;;;;;;6.53;100.00;103824.41;5236538;28;20040;-72
2021/12/18 05:56:15;;;;;;;25.40;14.02;;;;;;;6.55;100.00;103822.81;5238951;28;20396;-73
2021/12/18 05:58:46;;;;;;;26.77;13.97;;;;;;;6.49;100.00;103829.38;5238617;28;20029;-71
2021/12/18 06:01:19;;;;;;;22.13;13.63;;;;;;;6.56;100.00;103834.06;5237736;28;20126;-75
2021/12/18 06:03:51;;;;;;;25.15;14.43;;;;;;;6.46;100.00;103830.09;5238222;28;20392;-73
2021/12/18 06:06:22;;;;;;;28.42;16.10;;;;;;;6.47;100.00;103833.56;5238152;28;20045;-75
2021/12/18 06:08:54;;;;;;;24.83;15.30;;;;;;;6.42;100.00;103837.59;5238383;28;20029;-72
2021/12/18 06:11:28;;;;;;;25.57;14.37;;;;;;;6.43;100.00;103834.22;5238603;28;20540;-73
2021/12/18 06:13:59;;;;;;;23.13;13.50;;;;;;;6.37;100.00;103827.00;5238321;28;20026;-73
2021/12/18 06:16:31;;;;;;;27.33;14.50;;;;;;;6.37;100.00;103833.06;5237674;28;20079;-73
2021/12/18 06:19:02;;;;;;;23.47;13.43;;;;;;;6.33;100.00;103838.91;5238897;28;20033;-74
2021/12/18 06:21:33;;;;;;;25.07;14.13;;;;;;;6.32;100.00;103826.75;5238591;28;20033;-73
2021/12/18 06:24:25;;;;;;;25.27;13.83;;;;;;;6.35;100.00;103826.03;5431986;22;20049;-73
2021/12/18 06:26:56;;;;;;;25.33;13.43;;;;;;;6.37;100.00;103834.75;5259100;28;20072;-76
2021/12/18 06:29:28;;;;;;;23.63;13.57;;;;;;;6.43;100.00;103826.44;5235533;23;20077;-76
2021/12/18 06:32:00;;;;;;;22.40;12.80;;;;;;;6.35;100.00;103829.50;5238628;28;20025;-72
2021/12/18 06:34:31;;;;;;;19.80;11.70;;;;;;;6.37;100.00;103830.47;5238651;28;20037;-76
2021/12/18 06:37:02;;;;;;;19.97;12.03;;;;;;;6.39;100.00;103839.25;5238124;28;20091;-76
2021/12/18 06:39:34;;;;;;;18.70;12.07;;;;;;;6.37;100.00;103830.47;5238106;28;20025;-74
2021/12/18 06:42:05;;;;;;;22.40;12.53;;;;;;;6.41;100.00;103831.53;5237322;28;20079;-73
2021/12/18 06:44:37;;;;;;;21.03;12.20;;;;;;;6.44;100.00;103821.34;5237665;28;20017;-74
2021/12/18 06:47:08;;;;;;;20.13;11.20;;;;;;;6.41;100.00;103826.38;5237801;28;20052;-74
2021/12/18 06:49:40;;;;;;;19.67;11.53;;;;;;;6.46;100.00;103821.44;5237094;28;20651;-76
2021/12/18 06:52:11;;;;;;;22.27;12.63;;;;;;;6.40;100.00;103827.16;5236712;28;20029;-75
2021/12/18 06:54:42;;;;;;;18.17;10.43;;;;;;;6.44;100.00;103835.97;5235853;28;20499;-76
2021/12/18 06:57:14;;;;;;;21.63;11.10;;;;;;;6.42;100.00;103825.53;5235481;28;20524;-73
2021/12/18 06:59:45;;;;;;;19.00;11.50;;;;;;;6.45;100.00;103830.88;5235376;28;20026;-73
2021/12/18 07:02:17;;;;;;;21.83;12.67;;;;;;;6.44;100.00;103820.44;5235690;28;20029;-74
2021/12/18 07:04:48;;;;;;;20.33;12.30;;;;;;;6.46;100.00;103829.19;5234913;28;20324;-72
2021/12/18 07:07:20;;;;;;;18.27;11.23;;;;;;;6.43;100.00;103822.16;5235819;28;20116;-74
2021/12/18 07:09:51;;;;;;;23.37;12.60;;;;;;;6.45;100.00;103815.34;5236100;28;20022;-73
2021/12/18 07:12:22;;;;;;;18.10;11.07;;;;;;;6.48;100.00;103819.81;5234870;28;20091;-73
2021/12/18 07:14:54;;;;;;;23.17;13.97;;;;;;;6.49;100.00;103822.47;5235266;28;20416;-74
2021/12/18 07:17:25;;;;;;;20.40;11.97;;;;;;;6.46;100.00;103824.03;5234936;28;20047;-76
2021/12/18 07:19:56;;;;;;;20.53;10.10;;;;;;;6.47;100.00;103828.38;5234742;28;20555;-74
2021/12/18 07:22:28;;;;;;;17.40;9.23;;;;;;;6.51;100.00;103823.44;5235283;28;20476;-73
2021/12/18 07:24:59;;;;;;;15.33;9.80;;;;;;;6.51;100.00;103826.03;5235156;28;20429;-73
2021/12/18 07:27:30;;;;;;;16.53;9.63;;;;;;;6.52;100.00;103826.91;5235230;28;20033;-74
2021/12/18 07:30:04;;;;;;;17.07;9.43;;;;;;;6.49;100.00;103821.59;5234709;28;20049;-75
2021/12/18 07:32:35;;;;;;;17.45;10.15;;;;;;;6.44;100.00;103816.16;5235190;28;20025;-74
2021/12/18 07:35:07;;;;;;;17.97;10.97;;;;;;;6.46;100.00;103813.66;5235294;28;20087;-74
2021/12/18 07:37:39;;;;;;;19.90;11.48;;;;;;;6.46;100.00;103819.72;5235338;28;20029;-73
2021/12/18 07:40:11;;;;;;;18.00;9.97;;;;;;;6.43;100.00;103816.09;5235153;28;20037;-74
2021/12/18 07:42:43;;;;;;;17.05;9.73;;;;;;;6.43;100.00;103822.16;5236288;28;20025;-73
2021/12/18 07:45:14;;;;;;;16.73;9.40;;;;;;;6.42;100.00;103830.72;5235938;28;20032;-73
2021/12/18 07:47:45;;;;;;;20.03;10.03;;;;;;;6.44;100.00;103831.72;5236386;28;20091;-74
2021/12/18 07:50:20;;;;;;;18.83;9.73;;;;;;;6.45;100.00;103833.47;5236109;28;20029;-75
2021/12/18 07:52:51;;;;;;;16.73;8.77;;;;;;;6.45;100.00;103832.59;5236394;28;20039;-73
2021/12/18 07:55:23;;;;;;;17.10;9.37;;;;;;;6.45;100.00;103835.19;5235703;28;20026;-73
2021/12/18 07:57:55;;;;;;;15.73;9.03;;;;;;;6.44;100.00;103836.91;5236024;28;20030;-75
2021/12/18 08:00:26;;;;;;;16.30;8.50;;;;;;;6.45;100.00;103830.00;5236249;28;20033;-74
2021/12/18 08:02:58;;;;;;;17.80;10.30;;;;;;;6.42;100.00;103832.44;5235733;28;20040;-72
2021/12/18 08:05:29;;;;;;;20.17;10.53;;;;;;;6.47;100.00;103836.16;5236109;28;20033;-73
2021/12/18 08:08:00;;;;;;;18.70;10.57;;;;;;;6.51;100.00;103831.22;5234927;28;20030;-74
2021/12/18 08:10:32;;;;;;;20.60;10.57;;;;;;;6.48;100.00;103833.63;5235813;28;20034;-73
2021/12/18 08:13:04;;;;;;;20.77;10.70;;;;;;;6.49;100.00;103832.84;5235381;28;20152;-74
2021/12/18 08:15:35;;;;;;;18.73;10.40;;;;;;;6.52;100.00;103829.50;5235106;28;20124;-72
2021/12/18 08:18:07;;;;;;;17.97;10.73;;;;;;;6.63;100.00;103830.97;5235615;28;20033;-73
2021/12/18 08:20:39;;;;;;;25.75;12.45;;;;;;;6.59;100.00;103838.53;5235931;28;20025;-73
2021/12/18 08:23:10;;;;;;;18.40;10.17;;;;;;;6.64;100.00;103837.06;5236749;28;20030;-72
2021/12/18 08:25:42;;;;;;;17.53;9.43;;;;;;;6.70;100.00;103834.78;5236620;28;20029;-74
2021/12/18 08:28:13;;;;;;;18.07;9.57;;;;;;;6.64;100.00;103837.06;5236285;28;20033;-74
2021/12/18 08:30:45;;;;;;;19.03;9.67;;;;;;;6.72;100.00;103835.75;5236495;28;20473;-74
2021/12/18 08:33:17;;;;;;;19.37;10.30;;;;;;;6.71;100.00;103836.53;5236389;28;20432;-74
2021/12/18 08:35:48;;;;;;;18.50;9.73;;;;;;;6.69;100.00;103838.19;5236971;28;20029;-74
2021/12/18 08:38:20;;;;;;;15.57;8.33;;;;;;;6.74;100.00;103835.00;5237011;28;20276;-73
2021/12/18 08:40:51;;;;;;;15.17;7.70;;;;;;;6.78;100.00;103829.97;5235894;28;20040;-73
2021/12/18 08:43:23;;;;;;;18.00;8.37;;;;;;;6.70;100.00;103830.47;5236478;28;20040;-75
2021/12/18 08:45:55;;;;;;;14.65;7.65;;;;;;;6.78;100.00;103838.66;5235651;28;20064;-72
2021/12/18 08:48:26;;;;;;;13.63;7.10;;;;;;;6.68;100.00;103834.72;5234817;28;20513;-73
2021/12/18 08:50:57;;;;;;;14.37;7.73;;;;;;;6.67;100.00;103832.91;5235824;28;20112;-73
2021/12/18 08:53:29;;;;;;;18.57;8.00;;;;;;;6.74;100.00;103837.59;5235298;28;20483;-73
2021/12/18 08:56:00;;;;;;;15.03;7.87;;;;;;;6.85;100.00;103835.56;5235689;28;20108;-75
2021/12/18 08:58:31;;;;;;;14.73;8.63;;;;;;;6.79;100.00;103834.38;5235085;28;20112;-75
2021/12/18 09:01:04;;;;;;;13.50;8.27;;;;;;;6.72;100.00;103833.16;5235400;28;20453;-73
2021/12/18 09:03:35;;;;;;;16.02;7.90;;;;;;;6.84;100.00;103841.59;5302214;22;20465;-73
2021/12/18 09:06:07;;;;;;;36.23;20.97;;;;;;;6.87;100.00;103839.13;5255753;28;20033;-74
2021/12/18 09:08:38;;;;;;;18.57;10.77;;;;;;;6.89;100.00;103837.53;5255913;28;20507;-73
2021/12/18 09:11:10;;;;;;;28.40;16.03;;;;;;;6.96;100.00;103843.03;5255553;28;20033;-75
2021/12/18 09:13:41;;;;;;;30.03;16.43;;;;;;;7.04;100.00;103837.41;5255886;28;20460;-75
2021/12/18 09:16:13;;;;;;;99.57;57.23;;;;;;;6.99;100.00;103841.47;5255691;28;20352;-74
2021/12/18 09:18:44;;;;;;;21.20;12.00;;;;;;;7.02;100.00;103830.34;5255958;28;20037;-75
2021/12/18 09:21:16;;;;;;;22.77;13.60;;;;;;;6.99;100.00;103835.38;5255723;28;20025;-74
2021/12/18 09:23:47;;;;;;;22.40;13.97;;;;;;;6.96;100.00;103836.13;5255386;28;20082;-76
2021/12/18 09:26:19;;;;;;;15.03;9.03;;;;;;;7.00;100.00;103826.78;5271248;28;20029;-73
2021/12/18 09:28:50;;;;;;;20.83;15.67;;;;;;;7.06;100.00;103830.59;5255211;28;20072;-75
2021/12/18 09:31:24;;;;;;;17.70;12.77;;;;;;;7.16;100.00;103833.66;5255817;28;20480;-73
2021/12/18 09:33:55;;;;;;;9.60;5.72;;;;;;;7.16;100.00;103837.13;5255535;28;20025;-74
2021/12/18 09:36:27;;;;;;;10.60;6.57;;;;;;;7.19;100.00;103839.88;5255874;28;20024;-73
2021/12/18 09:38:58;;;;;;;12.50;7.23;;;;;;;7.18;100.00;103848.50;5255709;28;20033;-74
2021/12/18 09:41:32;;;;;;;9.23;5.20;;;;;;;7.19;100.00;103845.06;5254988;28;20029;-73
2021/12/18 09:44:03;;;;;;;7.47;4.40;;;;;;;7.32;100.00;103837.91;5254044;28;20031;-73
2021/12/18 09:46:35;;;;;;;7.77;4.70;;;;;;;7.29;100.00;103839.53;5253793;28;20420;-74
2021/12/18 09:49:06;;;;;;;8.23;4.40;;;;;;;7.27;100.00;103832.47;5236727;28;20128;-74
2021/12/18 09:51:38;;;;;;;8.33;4.87;;;;;;;7.26;100.00;103834.19;5255334;28;20483;-74
2021/12/18 09:54:09;;;;;;;10.20;5.33;;;;;;;7.26;100.00;103835.88;5237145;28;20036;-73
2021/12/18 09:56:42;;;;;;;12.97;6.70;;;;;;;7.33;100.00;103830.19;5256008;28;20376;-75
2021/12/18 09:59:14;;;;;;;9.85;6.03;;;;;;;7.19;100.00;103823.44;5255104;28;20766;-74
2021/12/18 10:01:45;;;;;;;9.63;5.77;;;;;;;7.25;100.00;103824.63;5254915;28;20033;-75
2021/12/18 10:04:44;;;;;;;9.90;5.23;;;;;;;7.40;100.00;103826.19;5274450;28;20045;-74
2021/12/18 10:07:20;;;;;;;11.27;6.10;;;;;;;7.29;100.00;103812.69;5271618;28;20043;-75
2021/12/18 10:09:58;;;;;;;11.05;6.68;;;;;;;7.25;100.00;103813.38;5275198;28;20134;-74
2021/12/18 10:12:32;;;;;;;11.38;7.63;;;;;;;7.35;100.00;103818.19;5274834;28;20051;-75
2021/12/18 10:15:17;;;;;;;11.05;6.55;;;;;;;7.28;100.00;103809.22;5275267;28;20033;-71
2021/12/18 10:18:07;;;;;;;10.85;6.60;;;;;;;7.27;100.00;103804.81;5274976;28;20143;-73
2021/12/18 10:20:38;;;;;;;9.55;6.50;;;;;;;7.30;100.00;103807.56;5274976;28;20029;-74
2021/12/18 10:23:10;;;;;;;10.43;6.80;;;;;;;7.23;100.00;103802.91;5275171;28;20063;-72
2021/12/18 10:25:43;;;;;;;11.33;7.03;;;;;;;7.22;100.00;103808.91;5273966;28;20074;-73
2021/12/18 10:28:16;;;;;;;13.20;6.88;;;;;;;7.25;100.00;103798.66;5274888;28;20044;-74
2021/12/18 10:30:54;;;;;;;10.90;6.93;;;;;;;7.25;100.00;103800.38;5275239;28;20111;-75
2021/12/18 10:33:28;;;;;;;10.18;6.32;;;;;;;7.26;100.00;103805.66;5344382;22;20394;-74
2021/12/18 10:36:01;;;;;;;11.93;7.20;;;;;;;7.23;100.00;103805.50;5233547;28;20099;-73
2021/12/18 10:38:51;;;;;;;10.50;6.38;;;;;;;7.14;100.00;103801.56;5234071;28;20032;-74
2021/12/18 10:41:32;;;;;;;11.35;6.90;;;;;;;7.11;100.00;103789.31;5237584;28;20029;-73
2021/12/18 10:44:11;;;;;;;10.23;5.28;;;;;;;7.20;100.00;103813.13;5237787;28;20439;-74
2021/12/18 10:46:45;;;;;;;8.90;6.20;;;;;;;7.23;100.00;103802.91;5237565;28;20029;-74
2021/12/18 10:49:18;;;;;;;8.80;6.15;;;;;;;7.18;100.00;103799.19;5237536;28;20210;-74
2021/12/18 10:51:57;;;;;;;8.40;5.28;;;;;;;7.31;100.00;103800.69;5237091;28;20025;-73
2021/12/18 10:54:35;;;;;;;8.63;4.97;;;;;;;7.36;100.00;103798.28;5237700;28;20385;-73
2021/12/18 10:57:19;;;;;;;7.55;4.43;;;;;;;7.26;100.00;103789.19;5236755;28;20037;-73
2021/12/18 10:59:53;;;;;;;7.07;4.57;;;;;;;7.07;100.00;103795.19;5236837;28;20025;-74
2021/12/18 11:02:27;;;;;;;7.28;4.38;;;;;;;7.05;100.00;103791.59;5236251;28;20746;-73
2021/12/18 11:07:41;;;;;;;6.25;3.85;;;;;;;7.10;100.00;103795.34;5278647;23;20412;-74
2021/12/18 11:16:07;;;;;;;7.40;4.50;;;;;;;7.23;100.00;103796.81;5237141;28;19917;-72
2021/12/18 11:18:38;;;;;;;5.70;3.70;;;;;;;7.30;100.00;103799.78;5236662;28;20022;-73
2021/12/18 11:21:10;;;;;;;11.93;8.17;;;;;;;7.26;100.00;103802.16;5236141;28;20108;-74
2021/12/18 11:23:49;;;;;;;4.82;3.00;;;;;;;7.19;99.68;103803.56;5236645;28;20084;-72
2021/12/18 11:26:24;;;;;;;8.73;6.55;;;;;;;7.19;100.00;103795.78;5235900;28;20498;-74
2021/12/18 11:28:57;;;;;;;5.95;3.20;;;;;;;7.19;99.95;103787.97;5235848;28;20033;-73
2021/12/18 11:31:30;;;;;;;6.00;3.78;;;;;;;7.11;100.00;103785.00;5236142;28;20156;-73
2021/12/18 11:34:02;;;;;;;;;;;;;;;7.39;100.00;103785.47;5236259;28;20045;-73
2021/12/18 11:36:37;;;;;;;7.97;5.30;;;;;;;7.07;100.00;103779.63;5236235;28;19913;-74
2021/12/18 11:39:11;;;;;;;7.43;4.95;;;;;;;7.02;100.00;103778.47;5236278;28;20021;-72
2021/12/18 11:41:47;;;;;;;9.23;4.93;;;;;;;6.98;100.00;103782.63;5235888;28;20057;-73
2021/12/18 11:44:31;;;;;;;9.00;5.32;;;;;;;6.94;100.00;103781.59;5235881;28;20060;-72
2021/12/18 11:47:28;;;;;;;13.70;9.43;;;;;;;7.05;100.00;103778.63;5235645;28;20113;-75
2021/12/18 11:50:01;;;;;;;10.02;6.35;;;;;;;7.07;100.00;103780.50;5235287;28;20037;-74
2021/12/18 11:53:13;;;;;;;9.13;5.63;;;;;;;7.07;100.00;103780.50;5217311;28;20029;-74
2021/12/18 11:55:44;;;;;;;10.52;6.03;;;;;;;6.94;100.00;103776.41;5192087;28;20034;-74
2021/12/18 11:58:17;;;;;;;13.90;5.57;;;;;;;6.85;100.00;103768.16;5192180;28;20037;-75
2021/12/18 12:00:55;;;;;;;10.90;6.03;;;;;;;6.91;100.00;103767.59;5190371;28;20521;-74
2021/12/18 12:03:33;;;;;;;8.60;5.35;;;;;;;6.86;100.00;103758.66;5181796;28;20045;-74
2021/12/18 12:06:35;;;;;;;9.05;6.20;;;;;;;6.90;100.00;103751.09;5181754;28;20057;-74
2021/12/18 12:12:19;;;;;;;8.18;5.95;;;;;;;6.82;100.00;103755.03;5091624;29;20036;-73
2021/12/18 12:15:13;;;;;;;8.63;5.20;;;;;;;6.93;100.00;103750.38;5091791;29;20528;-73
2021/12/18 12:18:04;;;;;;;;;;;;;;;7.04;100.00;103749.22;5091316;29;20035;-73
2021/12/18 12:21:16;;;;;;;12.57;10.52;;;;;;;6.97;100.00;103751.41;5092687;29;19926;-78
2021/12/18 12:26:49;;;;;;;7.85;5.25;;;;;;;6.79;100.00;103741.91;5786432;23;20178;-74
2021/12/18 12:29:45;;;;;;;6.53;4.65;;;;;;;6.92;100.00;103746.00;5256321;28;20631;-72
2021/12/18 12:32:22;;;;;;;8.25;5.22;;;;;;;6.85;100.00;103733.56;5255896;28;20029;-72
2021/12/18 12:37:56;;;;;;;8.65;5.75;;;;;;;6.88;100.00;103739.78;5581318;22;20042;-73